<?xml version="1.0" encoding="utf-8"?>
<gpx xmlns:xsi="http://www.w3.org/2001/XMLSchema-instance" xmlns:xsd="http://www.w3.org/2001/XMLSchema" version="1.1" creator="Shapelink.com" xmlns="http://www.topografix.com/GPX/1/1" xmlns:gpxtpx="http://www.garmin.com/xmlschemas/TrackPointExtension/v1">
  <metadata>
    <name>Gåing 5.64 km, 2012-11-16</name>
    <desc></desc>
    <author><name>Alexander Engvall</name></author> 
    <time>2012-11-16T23:13:44Z</time>
  </metadata>
  <trk>
    <name>Gåing 5.64 km, 2012-11-16</name>
    <trkseg>
      <trkpt lat="59.4591896" lon="17.8042304">
        <ele>69.8</ele>
        <time>2012-11-16T23:13:44Z</time>
      </trkpt>
      <trkpt lat="59.4592622" lon="17.8043773">
        <ele>73.4</ele>
        <time>2012-11-16T23:13:49Z</time>
      </trkpt>
      <trkpt lat="59.45924" lon="17.8044639">
        <ele>66</ele>
        <time>2012-11-16T23:13:53Z</time>
      </trkpt>
      <trkpt lat="59.4592528" lon="17.8045037">
        <ele>59.6</ele>
        <time>2012-11-16T23:14:00Z</time>
      </trkpt>
      <trkpt lat="59.4593069" lon="17.8045315">
        <ele>58.6</ele>
        <time>2012-11-16T23:14:04Z</time>
      </trkpt>
      <trkpt lat="59.4593854" lon="17.804537">
        <ele>63.2</ele>
        <time>2012-11-16T23:14:08Z</time>
      </trkpt>
      <trkpt lat="59.4594554" lon="17.8045224">
        <ele>69.8</ele>
        <time>2012-11-16T23:14:11Z</time>
      </trkpt>
      <trkpt lat="59.4594828" lon="17.8044946">
        <ele>72.4</ele>
        <time>2012-11-16T23:14:12Z</time>
      </trkpt>
      <trkpt lat="59.4595812" lon="17.8043194">
        <ele>75.6</ele>
        <time>2012-11-16T23:14:22Z</time>
      </trkpt>
      <trkpt lat="59.4595958" lon="17.8043113">
        <ele>75.2</ele>
        <time>2012-11-16T23:14:24Z</time>
      </trkpt>
      <trkpt lat="59.4596378" lon="17.8042611">
        <ele>75</ele>
        <time>2012-11-16T23:14:27Z</time>
      </trkpt>
      <trkpt lat="59.4596303" lon="17.8042245">
        <ele>72.6</ele>
        <time>2012-11-16T23:14:29Z</time>
      </trkpt>
      <trkpt lat="59.4597139" lon="17.8040569">
        <ele>74.4</ele>
        <time>2012-11-16T23:14:35Z</time>
      </trkpt>
      <trkpt lat="59.4598495" lon="17.8037864">
        <ele>86.4</ele>
        <time>2012-11-16T23:14:43Z</time>
      </trkpt>
      <trkpt lat="59.4598668" lon="17.8037585">
        <ele>87.6</ele>
        <time>2012-11-16T23:14:44Z</time>
      </trkpt>
      <trkpt lat="59.4599192" lon="17.8037101">
        <ele>90.6</ele>
        <time>2012-11-16T23:14:46Z</time>
      </trkpt>
      <trkpt lat="59.4600247" lon="17.8036533">
        <ele>91.2</ele>
        <time>2012-11-16T23:14:51Z</time>
      </trkpt>
      <trkpt lat="59.460051" lon="17.8036476">
        <ele>91</ele>
        <time>2012-11-16T23:14:52Z</time>
      </trkpt>
      <trkpt lat="59.4601634" lon="17.8034651">
        <ele>83.4</ele>
        <time>2012-11-16T23:15:04Z</time>
      </trkpt>
      <trkpt lat="59.4602525" lon="17.8033072">
        <ele>82.4</ele>
        <time>2012-11-16T23:15:11Z</time>
      </trkpt>
      <trkpt lat="59.4603237" lon="17.80327">
        <ele>83.2</ele>
        <time>2012-11-16T23:15:16Z</time>
      </trkpt>
      <trkpt lat="59.4603894" lon="17.8032851">
        <ele>77.2</ele>
        <time>2012-11-16T23:15:20Z</time>
      </trkpt>
      <trkpt lat="59.4605159" lon="17.8032312">
        <ele>76</ele>
        <time>2012-11-16T23:15:26Z</time>
      </trkpt>
      <trkpt lat="59.4606396" lon="17.8031146">
        <ele>77.2</ele>
        <time>2012-11-16T23:15:34Z</time>
      </trkpt>
      <trkpt lat="59.4606763" lon="17.803059">
        <ele>77</ele>
        <time>2012-11-16T23:15:37Z</time>
      </trkpt>
      <trkpt lat="59.4608316" lon="17.8029041">
        <ele>76.4</ele>
        <time>2012-11-16T23:15:45Z</time>
      </trkpt>
      <trkpt lat="59.4609919" lon="17.8026679">
        <ele>79</ele>
        <time>2012-11-16T23:15:52Z</time>
      </trkpt>
      <trkpt lat="59.4611535" lon="17.8025228">
        <ele>79.8</ele>
        <time>2012-11-16T23:16:01Z</time>
      </trkpt>
      <trkpt lat="59.4611639" lon="17.802507">
        <ele>79.2</ele>
        <time>2012-11-16T23:16:02Z</time>
      </trkpt>
      <trkpt lat="59.4612158" lon="17.8024674">
        <ele>77</ele>
        <time>2012-11-16T23:16:06Z</time>
      </trkpt>
      <trkpt lat="59.4612329" lon="17.8024392">
        <ele>75.2</ele>
        <time>2012-11-16T23:16:09Z</time>
      </trkpt>
      <trkpt lat="59.461294" lon="17.8024215">
        <ele>74.8</ele>
        <time>2012-11-16T23:16:14Z</time>
      </trkpt>
      <trkpt lat="59.4613311" lon="17.8024126">
        <ele>74.6</ele>
        <time>2012-11-16T23:16:16Z</time>
      </trkpt>
      <trkpt lat="59.4614061" lon="17.8023863">
        <ele>74.6</ele>
        <time>2012-11-16T23:16:19Z</time>
      </trkpt>
      <trkpt lat="59.461513" lon="17.8023517">
        <ele>77.2</ele>
        <time>2012-11-16T23:16:23Z</time>
      </trkpt>
      <trkpt lat="59.4615835" lon="17.8024847">
        <ele>73.2</ele>
        <time>2012-11-16T23:16:28Z</time>
      </trkpt>
      <trkpt lat="59.4615485" lon="17.8027012">
        <ele>65.4</ele>
        <time>2012-11-16T23:16:35Z</time>
      </trkpt>
      <trkpt lat="59.4615316" lon="17.8028207">
        <ele>63.2</ele>
        <time>2012-11-16T23:16:39Z</time>
      </trkpt>
      <trkpt lat="59.4614458" lon="17.8030232">
        <ele>61</ele>
        <time>2012-11-16T23:16:47Z</time>
      </trkpt>
      <trkpt lat="59.4612803" lon="17.8032472">
        <ele>57.2</ele>
        <time>2012-11-16T23:16:57Z</time>
      </trkpt>
      <trkpt lat="59.4611721" lon="17.8033906">
        <ele>52.8</ele>
        <time>2012-11-16T23:17:01Z</time>
      </trkpt>
      <trkpt lat="59.4611816" lon="17.8034763">
        <ele>48.6</ele>
        <time>2012-11-16T23:17:07Z</time>
      </trkpt>
      <trkpt lat="59.4611922" lon="17.8034871">
        <ele>48.4</ele>
        <time>2012-11-16T23:17:08Z</time>
      </trkpt>
      <trkpt lat="59.4613372" lon="17.8036435">
        <ele>47.2</ele>
        <time>2012-11-16T23:17:17Z</time>
      </trkpt>
      <trkpt lat="59.4614475" lon="17.8039559">
        <ele>46.4</ele>
        <time>2012-11-16T23:17:27Z</time>
      </trkpt>
      <trkpt lat="59.4614519" lon="17.8040647">
        <ele>46.4</ele>
        <time>2012-11-16T23:17:30Z</time>
      </trkpt>
      <trkpt lat="59.4614529" lon="17.804334">
        <ele>46.6</ele>
        <time>2012-11-16T23:17:38Z</time>
      </trkpt>
      <trkpt lat="59.4614058" lon="17.8044401">
        <ele>45.4</ele>
        <time>2012-11-16T23:17:41Z</time>
      </trkpt>
      <trkpt lat="59.4613259" lon="17.8046034">
        <ele>42</ele>
        <time>2012-11-16T23:17:46Z</time>
      </trkpt>
      <trkpt lat="59.4613379" lon="17.8046661">
        <ele>41</ele>
        <time>2012-11-16T23:17:49Z</time>
      </trkpt>
      <trkpt lat="59.4613959" lon="17.8048166">
        <ele>40.4</ele>
        <time>2012-11-16T23:17:55Z</time>
      </trkpt>
      <trkpt lat="59.4614186" lon="17.8048674">
        <ele>40.8</ele>
        <time>2012-11-16T23:17:57Z</time>
      </trkpt>
      <trkpt lat="59.4614561" lon="17.8049287">
        <ele>41</ele>
        <time>2012-11-16T23:17:59Z</time>
      </trkpt>
      <trkpt lat="59.4614957" lon="17.8049896">
        <ele>40.6</ele>
        <time>2012-11-16T23:18:01Z</time>
      </trkpt>
      <trkpt lat="59.461572" lon="17.8050037">
        <ele>41.2</ele>
        <time>2012-11-16T23:18:05Z</time>
      </trkpt>
      <trkpt lat="59.4616131" lon="17.8050793">
        <ele>40.8</ele>
        <time>2012-11-16T23:18:09Z</time>
      </trkpt>
      <trkpt lat="59.4615503" lon="17.8053301">
        <ele>32.6</ele>
        <time>2012-11-16T23:18:18Z</time>
      </trkpt>
      <trkpt lat="59.4615741" lon="17.8054268">
        <ele>32.2</ele>
        <time>2012-11-16T23:18:21Z</time>
      </trkpt>
      <trkpt lat="59.4617158" lon="17.8056897">
        <ele>33.6</ele>
        <time>2012-11-16T23:18:29Z</time>
      </trkpt>
      <trkpt lat="59.4618409" lon="17.805948">
        <ele>38.2</ele>
        <time>2012-11-16T23:18:39Z</time>
      </trkpt>
      <trkpt lat="59.462013" lon="17.8058394">
        <ele>44.8</ele>
        <time>2012-11-16T23:18:47Z</time>
      </trkpt>
      <trkpt lat="59.462044" lon="17.8058134">
        <ele>45</ele>
        <time>2012-11-16T23:18:49Z</time>
      </trkpt>
      <trkpt lat="59.4621724" lon="17.8056777">
        <ele>47</ele>
        <time>2012-11-16T23:18:56Z</time>
      </trkpt>
      <trkpt lat="59.462325" lon="17.8054658">
        <ele>52.8</ele>
        <time>2012-11-16T23:19:08Z</time>
      </trkpt>
      <trkpt lat="59.4625122" lon="17.8054058">
        <ele>54.6</ele>
        <time>2012-11-16T23:19:18Z</time>
      </trkpt>
      <trkpt lat="59.4625811" lon="17.8053936">
        <ele>54.2</ele>
        <time>2012-11-16T23:19:22Z</time>
      </trkpt>
      <trkpt lat="59.4626894" lon="17.8054111">
        <ele>48.6</ele>
        <time>2012-11-16T23:19:30Z</time>
      </trkpt>
      <trkpt lat="59.4628632" lon="17.80543">
        <ele>51.6</ele>
        <time>2012-11-16T23:19:38Z</time>
      </trkpt>
      <trkpt lat="59.4630575" lon="17.8054658">
        <ele>54</ele>
        <time>2012-11-16T23:19:47Z</time>
      </trkpt>
      <trkpt lat="59.4632364" lon="17.8054198">
        <ele>53.6</ele>
        <time>2012-11-16T23:19:57Z</time>
      </trkpt>
      <trkpt lat="59.4633965" lon="17.8054411">
        <ele>55</ele>
        <time>2012-11-16T23:20:04Z</time>
      </trkpt>
      <trkpt lat="59.463428" lon="17.8054701">
        <ele>53.4</ele>
        <time>2012-11-16T23:20:07Z</time>
      </trkpt>
      <trkpt lat="59.4635872" lon="17.8055975">
        <ele>50.8</ele>
        <time>2012-11-16T23:20:16Z</time>
      </trkpt>
      <trkpt lat="59.4637835" lon="17.8056586">
        <ele>49.8</ele>
        <time>2012-11-16T23:20:24Z</time>
      </trkpt>
      <trkpt lat="59.4639408" lon="17.8055176">
        <ele>44.6</ele>
        <time>2012-11-16T23:20:35Z</time>
      </trkpt>
      <trkpt lat="59.4640731" lon="17.8052706">
        <ele>41.4</ele>
        <time>2012-11-16T23:20:46Z</time>
      </trkpt>
      <trkpt lat="59.4641474" lon="17.8051329">
        <ele>40.4</ele>
        <time>2012-11-16T23:20:52Z</time>
      </trkpt>
      <trkpt lat="59.4642268" lon="17.8050502">
        <ele>42.2</ele>
        <time>2012-11-16T23:20:57Z</time>
      </trkpt>
      <trkpt lat="59.4644157" lon="17.8049422">
        <ele>38.8</ele>
        <time>2012-11-16T23:21:10Z</time>
      </trkpt>
      <trkpt lat="59.4644594" lon="17.8049091">
        <ele>38.2</ele>
        <time>2012-11-16T23:21:13Z</time>
      </trkpt>
      <trkpt lat="59.4645703" lon="17.8048571">
        <ele>36.6</ele>
        <time>2012-11-16T23:21:19Z</time>
      </trkpt>
      <trkpt lat="59.4645901" lon="17.8048447">
        <ele>36.8</ele>
        <time>2012-11-16T23:21:20Z</time>
      </trkpt>
      <trkpt lat="59.4647675" lon="17.8047308">
        <ele>36.6</ele>
        <time>2012-11-16T23:21:29Z</time>
      </trkpt>
      <trkpt lat="59.4648122" lon="17.8047092">
        <ele>35.6</ele>
        <time>2012-11-16T23:21:32Z</time>
      </trkpt>
      <trkpt lat="59.4648894" lon="17.8046805">
        <ele>34.8</ele>
        <time>2012-11-16T23:21:36Z</time>
      </trkpt>
      <trkpt lat="59.4649484" lon="17.8046634">
        <ele>32.6</ele>
        <time>2012-11-16T23:21:39Z</time>
      </trkpt>
      <trkpt lat="59.4651385" lon="17.8046288">
        <ele>31.2</ele>
        <time>2012-11-16T23:21:49Z</time>
      </trkpt>
      <trkpt lat="59.4653167" lon="17.8045765">
        <ele>30.6</ele>
        <time>2012-11-16T23:21:59Z</time>
      </trkpt>
      <trkpt lat="59.4654737" lon="17.8045645">
        <ele>27.6</ele>
        <time>2012-11-16T23:22:09Z</time>
      </trkpt>
      <trkpt lat="59.4655201" lon="17.8045371">
        <ele>28</ele>
        <time>2012-11-16T23:22:11Z</time>
      </trkpt>
      <trkpt lat="59.4656851" lon="17.8043314">
        <ele>23</ele>
        <time>2012-11-16T23:22:21Z</time>
      </trkpt>
      <trkpt lat="59.465858" lon="17.8041521">
        <ele>17.4</ele>
        <time>2012-11-16T23:22:33Z</time>
      </trkpt>
      <trkpt lat="59.4660237" lon="17.8039777">
        <ele>12</ele>
        <time>2012-11-16T23:22:44Z</time>
      </trkpt>
      <trkpt lat="59.4661906" lon="17.8037725">
        <ele>9.4</ele>
        <time>2012-11-16T23:22:55Z</time>
      </trkpt>
      <trkpt lat="59.4663533" lon="17.8035776">
        <ele>12</ele>
        <time>2012-11-16T23:23:07Z</time>
      </trkpt>
      <trkpt lat="59.4665289" lon="17.8035537">
        <ele>15.4</ele>
        <time>2012-11-16T23:23:18Z</time>
      </trkpt>
      <trkpt lat="59.4666979" lon="17.803716">
        <ele>14.2</ele>
        <time>2012-11-16T23:23:28Z</time>
      </trkpt>
      <trkpt lat="59.4668136" lon="17.8040117">
        <ele>15</ele>
        <time>2012-11-16T23:23:38Z</time>
      </trkpt>
      <trkpt lat="59.4669214" lon="17.8043128">
        <ele>18.6</ele>
        <time>2012-11-16T23:23:48Z</time>
      </trkpt>
      <trkpt lat="59.4669949" lon="17.8046583">
        <ele>16.4</ele>
        <time>2012-11-16T23:23:59Z</time>
      </trkpt>
      <trkpt lat="59.4670769" lon="17.8049996">
        <ele>17.4</ele>
        <time>2012-11-16T23:24:10Z</time>
      </trkpt>
      <trkpt lat="59.4670902" lon="17.8051059">
        <ele>18.4</ele>
        <time>2012-11-16T23:24:13Z</time>
      </trkpt>
      <trkpt lat="59.4671526" lon="17.8053172">
        <ele>17.4</ele>
        <time>2012-11-16T23:24:20Z</time>
      </trkpt>
      <trkpt lat="59.4671981" lon="17.8056633">
        <ele>18.4</ele>
        <time>2012-11-16T23:24:30Z</time>
      </trkpt>
      <trkpt lat="59.4672562" lon="17.8059942">
        <ele>21.4</ele>
        <time>2012-11-16T23:24:40Z</time>
      </trkpt>
      <trkpt lat="59.4673111" lon="17.8063509">
        <ele>19</ele>
        <time>2012-11-16T23:24:51Z</time>
      </trkpt>
      <trkpt lat="59.4673585" lon="17.8066975">
        <ele>18</ele>
        <time>2012-11-16T23:25:01Z</time>
      </trkpt>
      <trkpt lat="59.4674202" lon="17.8070578">
        <ele>19.2</ele>
        <time>2012-11-16T23:25:12Z</time>
      </trkpt>
      <trkpt lat="59.467511" lon="17.8073748">
        <ele>19.2</ele>
        <time>2012-11-16T23:25:22Z</time>
      </trkpt>
      <trkpt lat="59.4675959" lon="17.8077134">
        <ele>18.4</ele>
        <time>2012-11-16T23:25:34Z</time>
      </trkpt>
      <trkpt lat="59.4676065" lon="17.8077345">
        <ele>18</ele>
        <time>2012-11-16T23:25:35Z</time>
      </trkpt>
      <trkpt lat="59.4677654" lon="17.8076151">
        <ele>20.2</ele>
        <time>2012-11-16T23:25:47Z</time>
      </trkpt>
      <trkpt lat="59.4679336" lon="17.8074988">
        <ele>20.6</ele>
        <time>2012-11-16T23:25:57Z</time>
      </trkpt>
      <trkpt lat="59.4681143" lon="17.8074123">
        <ele>19.8</ele>
        <time>2012-11-16T23:26:07Z</time>
      </trkpt>
      <trkpt lat="59.4682878" lon="17.8073355">
        <ele>23.6</ele>
        <time>2012-11-16T23:26:16Z</time>
      </trkpt>
      <trkpt lat="59.4683765" lon="17.807301">
        <ele>22.4</ele>
        <time>2012-11-16T23:26:22Z</time>
      </trkpt>
      <trkpt lat="59.4684191" lon="17.8071355">
        <ele>21.6</ele>
        <time>2012-11-16T23:26:28Z</time>
      </trkpt>
      <trkpt lat="59.4684303" lon="17.8070281">
        <ele>22</ele>
        <time>2012-11-16T23:26:31Z</time>
      </trkpt>
      <trkpt lat="59.4684619" lon="17.8067698">
        <ele>21.6</ele>
        <time>2012-11-16T23:26:38Z</time>
      </trkpt>
      <trkpt lat="59.4685297" lon="17.8064329">
        <ele>24</ele>
        <time>2012-11-16T23:26:48Z</time>
      </trkpt>
      <trkpt lat="59.4686077" lon="17.8061042">
        <ele>24.4</ele>
        <time>2012-11-16T23:26:59Z</time>
      </trkpt>
      <trkpt lat="59.4686481" lon="17.805932">
        <ele>24.6</ele>
        <time>2012-11-16T23:27:05Z</time>
      </trkpt>
      <trkpt lat="59.4686691" lon="17.8057768">
        <ele>23.4</ele>
        <time>2012-11-16T23:27:10Z</time>
      </trkpt>
      <trkpt lat="59.4687525" lon="17.8054679">
        <ele>24.4</ele>
        <time>2012-11-16T23:27:19Z</time>
      </trkpt>
      <trkpt lat="59.4687748" lon="17.8053142">
        <ele>24</ele>
        <time>2012-11-16T23:27:24Z</time>
      </trkpt>
      <trkpt lat="59.4687931" lon="17.8051245">
        <ele>23</ele>
        <time>2012-11-16T23:27:30Z</time>
      </trkpt>
      <trkpt lat="59.4688129" lon="17.8050572">
        <ele>23</ele>
        <time>2012-11-16T23:27:32Z</time>
      </trkpt>
      <trkpt lat="59.4688408" lon="17.8047897">
        <ele>18.6</ele>
        <time>2012-11-16T23:27:41Z</time>
      </trkpt>
      <trkpt lat="59.4688558" lon="17.8047011">
        <ele>18.2</ele>
        <time>2012-11-16T23:27:44Z</time>
      </trkpt>
      <trkpt lat="59.4689149" lon="17.8044846">
        <ele>18.8</ele>
        <time>2012-11-16T23:27:52Z</time>
      </trkpt>
      <trkpt lat="59.469061" lon="17.8042325">
        <ele>21</ele>
        <time>2012-11-16T23:28:02Z</time>
      </trkpt>
      <trkpt lat="59.4692231" lon="17.8040303">
        <ele>21.2</ele>
        <time>2012-11-16T23:28:13Z</time>
      </trkpt>
      <trkpt lat="59.469376" lon="17.8038199">
        <ele>18.4</ele>
        <time>2012-11-16T23:28:23Z</time>
      </trkpt>
      <trkpt lat="59.4694697" lon="17.8037771">
        <ele>18.8</ele>
        <time>2012-11-16T23:28:28Z</time>
      </trkpt>
      <trkpt lat="59.4695005" lon="17.8038958">
        <ele>18.6</ele>
        <time>2012-11-16T23:28:31Z</time>
      </trkpt>
      <trkpt lat="59.4696039" lon="17.8041247">
        <ele>15.6</ele>
        <time>2012-11-16T23:28:42Z</time>
      </trkpt>
      <trkpt lat="59.4697871" lon="17.8040049">
        <ele>21.8</ele>
        <time>2012-11-16T23:28:50Z</time>
      </trkpt>
      <trkpt lat="59.4699644" lon="17.8038942">
        <ele>13.8</ele>
        <time>2012-11-16T23:29:02Z</time>
      </trkpt>
      <trkpt lat="59.4701362" lon="17.8037435">
        <ele>12.6</ele>
        <time>2012-11-16T23:29:12Z</time>
      </trkpt>
      <trkpt lat="59.47029" lon="17.8035176">
        <ele>11.4</ele>
        <time>2012-11-16T23:29:24Z</time>
      </trkpt>
      <trkpt lat="59.4704176" lon="17.8032631">
        <ele>13.8</ele>
        <time>2012-11-16T23:29:34Z</time>
      </trkpt>
      <trkpt lat="59.4705282" lon="17.8029463">
        <ele>12.4</ele>
        <time>2012-11-16T23:29:44Z</time>
      </trkpt>
      <trkpt lat="59.4705912" lon="17.8027445">
        <ele>10.2</ele>
        <time>2012-11-16T23:29:51Z</time>
      </trkpt>
      <trkpt lat="59.4706206" lon="17.8026183">
        <ele>9.4</ele>
        <time>2012-11-16T23:29:55Z</time>
      </trkpt>
      <trkpt lat="59.4706477" lon="17.8025618">
        <ele>9</ele>
        <time>2012-11-16T23:29:57Z</time>
      </trkpt>
      <trkpt lat="59.4707181" lon="17.8025995">
        <ele>8.2</ele>
        <time>2012-11-16T23:30:01Z</time>
      </trkpt>
      <trkpt lat="59.4707819" lon="17.8026884">
        <ele>7.4</ele>
        <time>2012-11-16T23:30:05Z</time>
      </trkpt>
      <trkpt lat="59.4709413" lon="17.8028798">
        <ele>6.2</ele>
        <time>2012-11-16T23:30:15Z</time>
      </trkpt>
      <trkpt lat="59.4710988" lon="17.8030776">
        <ele>6</ele>
        <time>2012-11-16T23:30:25Z</time>
      </trkpt>
      <trkpt lat="59.4712587" lon="17.80326">
        <ele>7.8</ele>
        <time>2012-11-16T23:30:35Z</time>
      </trkpt>
      <trkpt lat="59.4714266" lon="17.8034244">
        <ele>8.2</ele>
        <time>2012-11-16T23:30:45Z</time>
      </trkpt>
      <trkpt lat="59.4715997" lon="17.8035973">
        <ele>8</ele>
        <time>2012-11-16T23:30:56Z</time>
      </trkpt>
      <trkpt lat="59.4717707" lon="17.8037184">
        <ele>9</ele>
        <time>2012-11-16T23:31:06Z</time>
      </trkpt>
      <trkpt lat="59.4719336" lon="17.8038849">
        <ele>9.6</ele>
        <time>2012-11-16T23:31:17Z</time>
      </trkpt>
      <trkpt lat="59.4720566" lon="17.8039559">
        <ele>9.6</ele>
        <time>2012-11-16T23:31:25Z</time>
      </trkpt>
      <trkpt lat="59.4721115" lon="17.8038845">
        <ele>8.6</ele>
        <time>2012-11-16T23:31:29Z</time>
      </trkpt>
      <trkpt lat="59.4721809" lon="17.8038">
        <ele>8.6</ele>
        <time>2012-11-16T23:31:34Z</time>
      </trkpt>
      <trkpt lat="59.4722761" lon="17.8038923">
        <ele>8.2</ele>
        <time>2012-11-16T23:31:40Z</time>
      </trkpt>
      <trkpt lat="59.4724446" lon="17.8040872">
        <ele>7.6</ele>
        <time>2012-11-16T23:31:52Z</time>
      </trkpt>
      <trkpt lat="59.4726005" lon="17.8042662">
        <ele>11</ele>
        <time>2012-11-16T23:32:02Z</time>
      </trkpt>
      <trkpt lat="59.4727674" lon="17.8044291">
        <ele>15.2</ele>
        <time>2012-11-16T23:32:12Z</time>
      </trkpt>
      <trkpt lat="59.4728007" lon="17.8044278">
        <ele>15.2</ele>
        <time>2012-11-16T23:32:14Z</time>
      </trkpt>
      <trkpt lat="59.4728398" lon="17.8042739">
        <ele>14.2</ele>
        <time>2012-11-16T23:32:19Z</time>
      </trkpt>
      <trkpt lat="59.4728608" lon="17.8041496">
        <ele>13.6</ele>
        <time>2012-11-16T23:32:23Z</time>
      </trkpt>
      <trkpt lat="59.4729026" lon="17.8037967">
        <ele>14.8</ele>
        <time>2012-11-16T23:32:34Z</time>
      </trkpt>
      <trkpt lat="59.4729449" lon="17.8034254">
        <ele>18.4</ele>
        <time>2012-11-16T23:32:46Z</time>
      </trkpt>
      <trkpt lat="59.4729879" lon="17.8030821">
        <ele>20.4</ele>
        <time>2012-11-16T23:32:59Z</time>
      </trkpt>
      <trkpt lat="59.4730271" lon="17.8027221">
        <ele>23.2</ele>
        <time>2012-11-16T23:33:11Z</time>
      </trkpt>
      <trkpt lat="59.4730751" lon="17.8023595">
        <ele>25.4</ele>
        <time>2012-11-16T23:33:22Z</time>
      </trkpt>
      <trkpt lat="59.473133" lon="17.802007">
        <ele>26.2</ele>
        <time>2012-11-16T23:33:34Z</time>
      </trkpt>
      <trkpt lat="59.4731924" lon="17.8016627">
        <ele>25.8</ele>
        <time>2012-11-16T23:33:44Z</time>
      </trkpt>
      <trkpt lat="59.4732989" lon="17.8013714">
        <ele>26.8</ele>
        <time>2012-11-16T23:33:54Z</time>
      </trkpt>
      <trkpt lat="59.4734402" lon="17.801143">
        <ele>26.6</ele>
        <time>2012-11-16T23:34:05Z</time>
      </trkpt>
      <trkpt lat="59.4735978" lon="17.8009237">
        <ele>26</ele>
        <time>2012-11-16T23:34:16Z</time>
      </trkpt>
      <trkpt lat="59.4737594" lon="17.8007105">
        <ele>28.6</ele>
        <time>2012-11-16T23:34:27Z</time>
      </trkpt>
      <trkpt lat="59.4739143" lon="17.8005205">
        <ele>27.6</ele>
        <time>2012-11-16T23:34:38Z</time>
      </trkpt>
      <trkpt lat="59.4740793" lon="17.8003287">
        <ele>29</ele>
        <time>2012-11-16T23:34:48Z</time>
      </trkpt>
      <trkpt lat="59.4742517" lon="17.8001459">
        <ele>28.2</ele>
        <time>2012-11-16T23:34:59Z</time>
      </trkpt>
      <trkpt lat="59.4744245" lon="17.7999761">
        <ele>31</ele>
        <time>2012-11-16T23:35:10Z</time>
      </trkpt>
      <trkpt lat="59.4745604" lon="17.7997608">
        <ele>32</ele>
        <time>2012-11-16T23:35:20Z</time>
      </trkpt>
      <trkpt lat="59.4747197" lon="17.799531">
        <ele>27.8</ele>
        <time>2012-11-16T23:35:30Z</time>
      </trkpt>
      <trkpt lat="59.4748339" lon="17.7992335">
        <ele>26.6</ele>
        <time>2012-11-16T23:35:41Z</time>
      </trkpt>
      <trkpt lat="59.4749435" lon="17.7989363">
        <ele>26</ele>
        <time>2012-11-16T23:35:52Z</time>
      </trkpt>
      <trkpt lat="59.4750544" lon="17.7986228">
        <ele>23.2</ele>
        <time>2012-11-16T23:36:03Z</time>
      </trkpt>
      <trkpt lat="59.4751455" lon="17.7983115">
        <ele>23.2</ele>
        <time>2012-11-16T23:36:14Z</time>
      </trkpt>
      <trkpt lat="59.4751532" lon="17.7982504">
        <ele>22.6</ele>
        <time>2012-11-16T23:36:16Z</time>
      </trkpt>
      <trkpt lat="59.475137" lon="17.7981288">
        <ele>21.2</ele>
        <time>2012-11-16T23:36:20Z</time>
      </trkpt>
      <trkpt lat="59.4750683" lon="17.7980595">
        <ele>18.8</ele>
        <time>2012-11-16T23:36:24Z</time>
      </trkpt>
      <trkpt lat="59.4749446" lon="17.7978836">
        <ele>19</ele>
        <time>2012-11-16T23:36:33Z</time>
      </trkpt>
      <trkpt lat="59.4749109" lon="17.7978496">
        <ele>20</ele>
        <time>2012-11-16T23:36:35Z</time>
      </trkpt>
      <trkpt lat="59.4747352" lon="17.7976967">
        <ele>21.2</ele>
        <time>2012-11-16T23:36:46Z</time>
      </trkpt>
      <trkpt lat="59.4745496" lon="17.7976836">
        <ele>22.2</ele>
        <time>2012-11-16T23:36:58Z</time>
      </trkpt>
      <trkpt lat="59.4743778" lon="17.7976926">
        <ele>24.4</ele>
        <time>2012-11-16T23:37:09Z</time>
      </trkpt>
      <trkpt lat="59.4743653" lon="17.7976957">
        <ele>25.2</ele>
        <time>2012-11-16T23:37:10Z</time>
      </trkpt>
      <trkpt lat="59.4741812" lon="17.7977646">
        <ele>25</ele>
        <time>2012-11-16T23:37:20Z</time>
      </trkpt>
      <trkpt lat="59.4739934" lon="17.7978294">
        <ele>23.6</ele>
        <time>2012-11-16T23:37:31Z</time>
      </trkpt>
      <trkpt lat="59.473815" lon="17.7979287">
        <ele>23.2</ele>
        <time>2012-11-16T23:37:41Z</time>
      </trkpt>
      <trkpt lat="59.4736406" lon="17.798027">
        <ele>24.4</ele>
        <time>2012-11-16T23:37:52Z</time>
      </trkpt>
      <trkpt lat="59.473463" lon="17.7981262">
        <ele>25</ele>
        <time>2012-11-16T23:38:02Z</time>
      </trkpt>
      <trkpt lat="59.4732867" lon="17.798211">
        <ele>26.2</ele>
        <time>2012-11-16T23:38:12Z</time>
      </trkpt>
      <trkpt lat="59.4730999" lon="17.7983458">
        <ele>25.8</ele>
        <time>2012-11-16T23:38:23Z</time>
      </trkpt>
      <trkpt lat="59.4729833" lon="17.7986163">
        <ele>30.6</ele>
        <time>2012-11-16T23:38:34Z</time>
      </trkpt>
      <trkpt lat="59.4728548" lon="17.798894">
        <ele>32</ele>
        <time>2012-11-16T23:38:46Z</time>
      </trkpt>
      <trkpt lat="59.4727061" lon="17.799114">
        <ele>28.2</ele>
        <time>2012-11-16T23:38:55Z</time>
      </trkpt>
      <trkpt lat="59.4725674" lon="17.7993656">
        <ele>26.6</ele>
        <time>2012-11-16T23:39:06Z</time>
      </trkpt>
      <trkpt lat="59.4724275" lon="17.7996104">
        <ele>23.6</ele>
        <time>2012-11-16T23:39:17Z</time>
      </trkpt>
      <trkpt lat="59.4722869" lon="17.7998515">
        <ele>22.6</ele>
        <time>2012-11-16T23:39:27Z</time>
      </trkpt>
      <trkpt lat="59.4721135" lon="17.8000293">
        <ele>19.8</ele>
        <time>2012-11-16T23:39:38Z</time>
      </trkpt>
      <trkpt lat="59.4719347" lon="17.8000998">
        <ele>16.2</ele>
        <time>2012-11-16T23:39:48Z</time>
      </trkpt>
      <trkpt lat="59.471723" lon="17.800153">
        <ele>13.6</ele>
        <time>2012-11-16T23:39:59Z</time>
      </trkpt>
      <trkpt lat="59.4715525" lon="17.8001004">
        <ele>10</ele>
        <time>2012-11-16T23:40:10Z</time>
      </trkpt>
      <trkpt lat="59.4713655" lon="17.8000361">
        <ele>7.2</ele>
        <time>2012-11-16T23:40:21Z</time>
      </trkpt>
      <trkpt lat="59.4713034" lon="17.8000297">
        <ele>7.2</ele>
        <time>2012-11-16T23:40:25Z</time>
      </trkpt>
      <trkpt lat="59.4712234" lon="17.8000049">
        <ele>6.8</ele>
        <time>2012-11-16T23:40:29Z</time>
      </trkpt>
      <trkpt lat="59.4711792" lon="17.7999953">
        <ele>6.8</ele>
        <time>2012-11-16T23:40:31Z</time>
      </trkpt>
      <trkpt lat="59.4710018" lon="17.7999029">
        <ele>8</ele>
        <time>2012-11-16T23:40:41Z</time>
      </trkpt>
      <trkpt lat="59.4708044" lon="17.7997879">
        <ele>3.8</ele>
        <time>2012-11-16T23:40:51Z</time>
      </trkpt>
      <trkpt lat="59.4707292" lon="17.7997593">
        <ele>0.8</ele>
        <time>2012-11-16T23:40:57Z</time>
      </trkpt>
      <trkpt lat="59.470634" lon="17.7997823">
        <ele>0.2</ele>
        <time>2012-11-16T23:41:02Z</time>
      </trkpt>
      <trkpt lat="59.470578" lon="17.7998076">
        <ele>0</ele>
        <time>2012-11-16T23:41:05Z</time>
      </trkpt>
      <trkpt lat="59.4704638" lon="17.799873">
        <ele>0</ele>
        <time>2012-11-16T23:41:11Z</time>
      </trkpt>
      <trkpt lat="59.4702819" lon="17.800002">
        <ele>0</ele>
        <time>2012-11-16T23:41:22Z</time>
      </trkpt>
      <trkpt lat="59.4701213" lon="17.8002439">
        <ele>1.8</ele>
        <time>2012-11-16T23:41:32Z</time>
      </trkpt>
      <trkpt lat="59.4699716" lon="17.8003886">
        <ele>0</ele>
        <time>2012-11-16T23:41:42Z</time>
      </trkpt>
      <trkpt lat="59.4698125" lon="17.8005777">
        <ele>0.4</ele>
        <time>2012-11-16T23:41:52Z</time>
      </trkpt>
      <trkpt lat="59.4696435" lon="17.8007115">
        <ele>0</ele>
        <time>2012-11-16T23:42:02Z</time>
      </trkpt>
      <trkpt lat="59.4694613" lon="17.8006489">
        <ele>0</ele>
        <time>2012-11-16T23:42:12Z</time>
      </trkpt>
      <trkpt lat="59.4693718" lon="17.8005446">
        <ele>0</ele>
        <time>2012-11-16T23:42:18Z</time>
      </trkpt>
      <trkpt lat="59.469307" lon="17.8004318">
        <ele>0</ele>
        <time>2012-11-16T23:42:23Z</time>
      </trkpt>
      <trkpt lat="59.4691726" lon="17.8003089">
        <ele>0</ele>
        <time>2012-11-16T23:42:32Z</time>
      </trkpt>
      <trkpt lat="59.4691453" lon="17.8002638">
        <ele>0</ele>
        <time>2012-11-16T23:42:34Z</time>
      </trkpt>
      <trkpt lat="59.469008" lon="17.8000485">
        <ele>0</ele>
        <time>2012-11-16T23:42:43Z</time>
      </trkpt>
      <trkpt lat="59.4688675" lon="17.7998307">
        <ele>0</ele>
        <time>2012-11-16T23:42:53Z</time>
      </trkpt>
      <trkpt lat="59.4687376" lon="17.799587">
        <ele>0</ele>
        <time>2012-11-16T23:43:04Z</time>
      </trkpt>
      <trkpt lat="59.4686834" lon="17.7994524">
        <ele>0</ele>
        <time>2012-11-16T23:43:11Z</time>
      </trkpt>
      <trkpt lat="59.4685916" lon="17.7994083">
        <ele>0</ele>
        <time>2012-11-16T23:43:17Z</time>
      </trkpt>
      <trkpt lat="59.4684186" lon="17.7994957">
        <ele>0</ele>
        <time>2012-11-16T23:43:28Z</time>
      </trkpt>
      <trkpt lat="59.4682648" lon="17.7996911">
        <ele>0</ele>
        <time>2012-11-16T23:43:41Z</time>
      </trkpt>
      <trkpt lat="59.4681156" lon="17.7999404">
        <ele>1.2</ele>
        <time>2012-11-16T23:43:52Z</time>
      </trkpt>
      <trkpt lat="59.4679855" lon="17.8001802">
        <ele>2</ele>
        <time>2012-11-16T23:44:02Z</time>
      </trkpt>
      <trkpt lat="59.4678249" lon="17.8003898">
        <ele>2.2</ele>
        <time>2012-11-16T23:44:13Z</time>
      </trkpt>
      <trkpt lat="59.4676539" lon="17.8005414">
        <ele>0</ele>
        <time>2012-11-16T23:44:24Z</time>
      </trkpt>
      <trkpt lat="59.4674673" lon="17.8006604">
        <ele>0</ele>
        <time>2012-11-16T23:44:35Z</time>
      </trkpt>
      <trkpt lat="59.4672821" lon="17.8007669">
        <ele>0</ele>
        <time>2012-11-16T23:44:46Z</time>
      </trkpt>
      <trkpt lat="59.467105" lon="17.80085">
        <ele>0</ele>
        <time>2012-11-16T23:44:56Z</time>
      </trkpt>
      <trkpt lat="59.4669226" lon="17.8009311">
        <ele>0</ele>
        <time>2012-11-16T23:45:06Z</time>
      </trkpt>
      <trkpt lat="59.4667419" lon="17.8010005">
        <ele>0</ele>
        <time>2012-11-16T23:45:16Z</time>
      </trkpt>
      <trkpt lat="59.4665546" lon="17.8010159">
        <ele>0</ele>
        <time>2012-11-16T23:45:26Z</time>
      </trkpt>
      <trkpt lat="59.4663605" lon="17.8010529">
        <ele>0</ele>
        <time>2012-11-16T23:45:37Z</time>
      </trkpt>
      <trkpt lat="59.4663254" lon="17.8010467">
        <ele>0</ele>
        <time>2012-11-16T23:45:38Z</time>
      </trkpt>
      <trkpt lat="59.4661602" lon="17.8010517">
        <ele>0</ele>
        <time>2012-11-16T23:45:47Z</time>
      </trkpt>
      <trkpt lat="59.4659877" lon="17.8009934">
        <ele>0</ele>
        <time>2012-11-16T23:45:58Z</time>
      </trkpt>
      <trkpt lat="59.4658104" lon="17.8009491">
        <ele>0</ele>
        <time>2012-11-16T23:46:08Z</time>
      </trkpt>
      <trkpt lat="59.4656247" lon="17.8010338">
        <ele>0</ele>
        <time>2012-11-16T23:46:19Z</time>
      </trkpt>
      <trkpt lat="59.4655892" lon="17.8010353">
        <ele>0</ele>
        <time>2012-11-16T23:46:21Z</time>
      </trkpt>
      <trkpt lat="59.4654307" lon="17.8010365">
        <ele>0</ele>
        <time>2012-11-16T23:46:30Z</time>
      </trkpt>
      <trkpt lat="59.4652375" lon="17.800969">
        <ele>0</ele>
        <time>2012-11-16T23:46:40Z</time>
      </trkpt>
      <trkpt lat="59.4650654" lon="17.8009291">
        <ele>0</ele>
        <time>2012-11-16T23:46:51Z</time>
      </trkpt>
      <trkpt lat="59.4649576" lon="17.8009094">
        <ele>0</ele>
        <time>2012-11-16T23:46:57Z</time>
      </trkpt>
      <trkpt lat="59.4648811" lon="17.8008479">
        <ele>0</ele>
        <time>2012-11-16T23:47:02Z</time>
      </trkpt>
      <trkpt lat="59.4647131" lon="17.8007099">
        <ele>0</ele>
        <time>2012-11-16T23:47:12Z</time>
      </trkpt>
      <trkpt lat="59.4645252" lon="17.8006155">
        <ele>0</ele>
        <time>2012-11-16T23:47:25Z</time>
      </trkpt>
      <trkpt lat="59.4643601" lon="17.8004826">
        <ele>0</ele>
        <time>2012-11-16T23:47:34Z</time>
      </trkpt>
      <trkpt lat="59.4641852" lon="17.8003506">
        <ele>0</ele>
        <time>2012-11-16T23:47:45Z</time>
      </trkpt>
      <trkpt lat="59.4640839" lon="17.8003744">
        <ele>0</ele>
        <time>2012-11-16T23:47:50Z</time>
      </trkpt>
      <trkpt lat="59.4640015" lon="17.8003583">
        <ele>0</ele>
        <time>2012-11-16T23:47:55Z</time>
      </trkpt>
      <trkpt lat="59.4639863" lon="17.8003516">
        <ele>0</ele>
        <time>2012-11-16T23:47:56Z</time>
      </trkpt>
      <trkpt lat="59.4639371" lon="17.8003275">
        <ele>0</ele>
        <time>2012-11-16T23:47:59Z</time>
      </trkpt>
      <trkpt lat="59.4638767" lon="17.8003003">
        <ele>0</ele>
        <time>2012-11-16T23:48:03Z</time>
      </trkpt>
      <trkpt lat="59.4638353" lon="17.8002878">
        <ele>0</ele>
        <time>2012-11-16T23:48:06Z</time>
      </trkpt>
      <trkpt lat="59.4638197" lon="17.8002915">
        <ele>0</ele>
        <time>2012-11-16T23:48:07Z</time>
      </trkpt>
      <trkpt lat="59.4637689" lon="17.8002562">
        <ele>0</ele>
        <time>2012-11-16T23:48:10Z</time>
      </trkpt>
      <trkpt lat="59.4636394" lon="17.8002086">
        <ele>0</ele>
        <time>2012-11-16T23:48:17Z</time>
      </trkpt>
      <trkpt lat="59.4634646" lon="17.800088">
        <ele>0</ele>
        <time>2012-11-16T23:48:27Z</time>
      </trkpt>
      <trkpt lat="59.4632681" lon="17.8000359">
        <ele>0</ele>
        <time>2012-11-16T23:48:37Z</time>
      </trkpt>
      <trkpt lat="59.4630909" lon="17.7999578">
        <ele>0</ele>
        <time>2012-11-16T23:48:49Z</time>
      </trkpt>
      <trkpt lat="59.4628976" lon="17.7998357">
        <ele>0</ele>
        <time>2012-11-16T23:49:01Z</time>
      </trkpt>
      <trkpt lat="59.462722" lon="17.79973">
        <ele>0</ele>
        <time>2012-11-16T23:49:10Z</time>
      </trkpt>
      <trkpt lat="59.4625488" lon="17.7995879">
        <ele>0</ele>
        <time>2012-11-16T23:49:21Z</time>
      </trkpt>
      <trkpt lat="59.4625319" lon="17.7995792">
        <ele>0</ele>
        <time>2012-11-16T23:49:22Z</time>
      </trkpt>
      <trkpt lat="59.4623562" lon="17.7995632">
        <ele>0</ele>
        <time>2012-11-16T23:49:33Z</time>
      </trkpt>
      <trkpt lat="59.462257" lon="17.7995353">
        <ele>0</ele>
        <time>2012-11-16T23:49:39Z</time>
      </trkpt>
      <trkpt lat="59.4621722" lon="17.7995046">
        <ele>0</ele>
        <time>2012-11-16T23:49:42Z</time>
      </trkpt>
      <trkpt lat="59.4621402" lon="17.7994777">
        <ele>0</ele>
        <time>2012-11-16T23:49:44Z</time>
      </trkpt>
      <trkpt lat="59.4619835" lon="17.7994736">
        <ele>0</ele>
        <time>2012-11-16T23:49:53Z</time>
      </trkpt>
      <trkpt lat="59.4617861" lon="17.7994925">
        <ele>0</ele>
        <time>2012-11-16T23:50:04Z</time>
      </trkpt>
      <trkpt lat="59.4615896" lon="17.7994809">
        <ele>0</ele>
        <time>2012-11-16T23:50:17Z</time>
      </trkpt>
      <trkpt lat="59.4615234" lon="17.7994769">
        <ele>0.4</ele>
        <time>2012-11-16T23:50:21Z</time>
      </trkpt>
      <trkpt lat="59.4614581" lon="17.7994714">
        <ele>0</ele>
        <time>2012-11-16T23:50:26Z</time>
      </trkpt>
      <trkpt lat="59.4614052" lon="17.7994466">
        <ele>0</ele>
        <time>2012-11-16T23:50:28Z</time>
      </trkpt>
      <trkpt lat="59.4613885" lon="17.7994435">
        <ele>0</ele>
        <time>2012-11-16T23:50:29Z</time>
      </trkpt>
      <trkpt lat="59.4612839" lon="17.7994817">
        <ele>0</ele>
        <time>2012-11-16T23:50:34Z</time>
      </trkpt>
      <trkpt lat="59.4612193" lon="17.79952">
        <ele>0</ele>
        <time>2012-11-16T23:50:37Z</time>
      </trkpt>
      <trkpt lat="59.46104" lon="17.7995472">
        <ele>0</ele>
        <time>2012-11-16T23:50:47Z</time>
      </trkpt>
      <trkpt lat="59.4610219" lon="17.7995403">
        <ele>0</ele>
        <time>2012-11-16T23:50:48Z</time>
      </trkpt>
      <trkpt lat="59.4608363" lon="17.7995362">
        <ele>0</ele>
        <time>2012-11-16T23:50:58Z</time>
      </trkpt>
      <trkpt lat="59.4606542" lon="17.7996269">
        <ele>0</ele>
        <time>2012-11-16T23:51:10Z</time>
      </trkpt>
      <trkpt lat="59.4604776" lon="17.7997122">
        <ele>0</ele>
        <time>2012-11-16T23:51:21Z</time>
      </trkpt>
      <trkpt lat="59.4603102" lon="17.7998346">
        <ele>0</ele>
        <time>2012-11-16T23:51:32Z</time>
      </trkpt>
      <trkpt lat="59.4601345" lon="17.7999826">
        <ele>0</ele>
        <time>2012-11-16T23:51:43Z</time>
      </trkpt>
      <trkpt lat="59.460089" lon="17.8000205">
        <ele>0</ele>
        <time>2012-11-16T23:51:46Z</time>
      </trkpt>
      <trkpt lat="59.4599559" lon="17.800132">
        <ele>0</ele>
        <time>2012-11-16T23:51:55Z</time>
      </trkpt>
      <trkpt lat="59.4597781" lon="17.8002736">
        <ele>0</ele>
        <time>2012-11-16T23:52:07Z</time>
      </trkpt>
      <trkpt lat="59.4596155" lon="17.8004599">
        <ele>0</ele>
        <time>2012-11-16T23:52:16Z</time>
      </trkpt>
      <trkpt lat="59.4594455" lon="17.8005758">
        <ele>0</ele>
        <time>2012-11-16T23:52:26Z</time>
      </trkpt>
      <trkpt lat="59.4592638" lon="17.8006632">
        <ele>0</ele>
        <time>2012-11-16T23:52:36Z</time>
      </trkpt>
      <trkpt lat="59.4591097" lon="17.8006938">
        <ele>0</ele>
        <time>2012-11-16T23:52:44Z</time>
      </trkpt>
      <trkpt lat="59.4590764" lon="17.8007091">
        <ele>0</ele>
        <time>2012-11-16T23:52:46Z</time>
      </trkpt>
      <trkpt lat="59.4588894" lon="17.8007488">
        <ele>0</ele>
        <time>2012-11-16T23:52:58Z</time>
      </trkpt>
      <trkpt lat="59.4586842" lon="17.8007384">
        <ele>5.6</ele>
        <time>2012-11-16T23:53:09Z</time>
      </trkpt>
      <trkpt lat="59.4584945" lon="17.8007432">
        <ele>12.2</ele>
        <time>2012-11-16T23:53:19Z</time>
      </trkpt>
      <trkpt lat="59.4583234" lon="17.8008131">
        <ele>11</ele>
        <time>2012-11-16T23:53:29Z</time>
      </trkpt>
      <trkpt lat="59.4583087" lon="17.8008152">
        <ele>11.2</ele>
        <time>2012-11-16T23:53:30Z</time>
      </trkpt>
      <trkpt lat="59.4582348" lon="17.8008592">
        <ele>10.2</ele>
        <time>2012-11-16T23:53:35Z</time>
      </trkpt>
      <trkpt lat="59.4581221" lon="17.8009144">
        <ele>9.2</ele>
        <time>2012-11-16T23:53:42Z</time>
      </trkpt>
      <trkpt lat="59.4579408" lon="17.8009857">
        <ele>5.6</ele>
        <time>2012-11-16T23:53:53Z</time>
      </trkpt>
      <trkpt lat="59.4577669" lon="17.8010789">
        <ele>2.6</ele>
        <time>2012-11-16T23:54:04Z</time>
      </trkpt>
      <trkpt lat="59.4575731" lon="17.8011155">
        <ele>4.6</ele>
        <time>2012-11-16T23:54:15Z</time>
      </trkpt>
      <trkpt lat="59.4574632" lon="17.8010924">
        <ele>4</ele>
        <time>2012-11-16T23:54:21Z</time>
      </trkpt>
      <trkpt lat="59.4573864" lon="17.8011098">
        <ele>6.2</ele>
        <time>2012-11-16T23:54:26Z</time>
      </trkpt>
      <trkpt lat="59.4571954" lon="17.801142">
        <ele>9.6</ele>
        <time>2012-11-16T23:54:37Z</time>
      </trkpt>
      <trkpt lat="59.4570103" lon="17.8012166">
        <ele>6.4</ele>
        <time>2012-11-16T23:54:49Z</time>
      </trkpt>
      <trkpt lat="59.4568386" lon="17.8012941">
        <ele>9.4</ele>
        <time>2012-11-16T23:55:00Z</time>
      </trkpt>
      <trkpt lat="59.4568238" lon="17.8013083">
        <ele>9.4</ele>
        <time>2012-11-16T23:55:01Z</time>
      </trkpt>
      <trkpt lat="59.4566376" lon="17.8014101">
        <ele>10.4</ele>
        <time>2012-11-16T23:55:13Z</time>
      </trkpt>
      <trkpt lat="59.456485" lon="17.8016088">
        <ele>10.6</ele>
        <time>2012-11-16T23:55:24Z</time>
      </trkpt>
      <trkpt lat="59.4563283" lon="17.801809">
        <ele>9</ele>
        <time>2012-11-16T23:55:35Z</time>
      </trkpt>
      <trkpt lat="59.4561589" lon="17.8019815">
        <ele>8.4</ele>
        <time>2012-11-16T23:55:45Z</time>
      </trkpt>
      <trkpt lat="59.4559867" lon="17.8021411">
        <ele>5.2</ele>
        <time>2012-11-16T23:55:56Z</time>
      </trkpt>
      <trkpt lat="59.4558132" lon="17.8022422">
        <ele>4.2</ele>
        <time>2012-11-16T23:56:08Z</time>
      </trkpt>
      <trkpt lat="59.4556354" lon="17.802394">
        <ele>9.6</ele>
        <time>2012-11-16T23:56:19Z</time>
      </trkpt>
      <trkpt lat="59.4556156" lon="17.802408">
        <ele>8.2</ele>
        <time>2012-11-16T23:56:20Z</time>
      </trkpt>
      <trkpt lat="59.4554574" lon="17.8025236">
        <ele>7.4</ele>
        <time>2012-11-16T23:56:31Z</time>
      </trkpt>
      <trkpt lat="59.455293" lon="17.8026128">
        <ele>8.4</ele>
        <time>2012-11-16T23:56:40Z</time>
      </trkpt>
      <trkpt lat="59.4552746" lon="17.802623">
        <ele>8</ele>
        <time>2012-11-16T23:56:41Z</time>
      </trkpt>
      <trkpt lat="59.4552419" lon="17.8026464">
        <ele>7.4</ele>
        <time>2012-11-16T23:56:43Z</time>
      </trkpt>
      <trkpt lat="59.4551151" lon="17.8027627">
        <ele>13.2</ele>
        <time>2012-11-16T23:56:50Z</time>
      </trkpt>
      <trkpt lat="59.4550989" lon="17.8027731">
        <ele>13.4</ele>
        <time>2012-11-16T23:56:51Z</time>
      </trkpt>
      <trkpt lat="59.4550564" lon="17.8028074">
        <ele>12.8</ele>
        <time>2012-11-16T23:56:53Z</time>
      </trkpt>
      <trkpt lat="59.4549849" lon="17.8028652">
        <ele>12.2</ele>
        <time>2012-11-16T23:56:58Z</time>
      </trkpt>
      <trkpt lat="59.4549218" lon="17.8029478">
        <ele>10.6</ele>
        <time>2012-11-16T23:57:03Z</time>
      </trkpt>
      <trkpt lat="59.454911" lon="17.8029742">
        <ele>10.6</ele>
        <time>2012-11-16T23:57:04Z</time>
      </trkpt>
      <trkpt lat="59.4548912" lon="17.8031704">
        <ele>10.2</ele>
        <time>2012-11-16T23:57:10Z</time>
      </trkpt>
      <trkpt lat="59.454913" lon="17.8032461">
        <ele>10</ele>
        <time>2012-11-16T23:57:13Z</time>
      </trkpt>
      <trkpt lat="59.4549185" lon="17.8032722">
        <ele>10.2</ele>
        <time>2012-11-16T23:57:14Z</time>
      </trkpt>
      <trkpt lat="59.4549322" lon="17.8033452">
        <ele>9.6</ele>
        <time>2012-11-16T23:57:17Z</time>
      </trkpt>
      <trkpt lat="59.4549695" lon="17.8036249">
        <ele>13.6</ele>
        <time>2012-11-16T23:57:24Z</time>
      </trkpt>
      <trkpt lat="59.4550212" lon="17.8039616">
        <ele>12.2</ele>
        <time>2012-11-16T23:57:35Z</time>
      </trkpt>
      <trkpt lat="59.4551126" lon="17.8041144">
        <ele>15.6</ele>
        <time>2012-11-16T23:57:44Z</time>
      </trkpt>
      <trkpt lat="59.455177" lon="17.8041962">
        <ele>19.2</ele>
        <time>2012-11-16T23:57:49Z</time>
      </trkpt>
      <trkpt lat="59.4553464" lon="17.8042901">
        <ele>22</ele>
        <time>2012-11-16T23:58:00Z</time>
      </trkpt>
      <trkpt lat="59.4553704" lon="17.8042892">
        <ele>22.8</ele>
        <time>2012-11-16T23:58:01Z</time>
      </trkpt>
      <trkpt lat="59.4555278" lon="17.8043219">
        <ele>23</ele>
        <time>2012-11-16T23:58:11Z</time>
      </trkpt>
      <trkpt lat="59.4556947" lon="17.8041947">
        <ele>22.2</ele>
        <time>2012-11-16T23:58:23Z</time>
      </trkpt>
      <trkpt lat="59.4558764" lon="17.8041506">
        <ele>24</ele>
        <time>2012-11-16T23:58:35Z</time>
      </trkpt>
      <trkpt lat="59.4560379" lon="17.8043148">
        <ele>28.4</ele>
        <time>2012-11-16T23:58:44Z</time>
      </trkpt>
      <trkpt lat="59.4562014" lon="17.8044944">
        <ele>27.2</ele>
        <time>2012-11-16T23:58:54Z</time>
      </trkpt>
      <trkpt lat="59.4563633" lon="17.804664">
        <ele>23.8</ele>
        <time>2012-11-16T23:59:06Z</time>
      </trkpt>
      <trkpt lat="59.4565492" lon="17.8047825">
        <ele>16.6</ele>
        <time>2012-11-16T23:59:20Z</time>
      </trkpt>
      <trkpt lat="59.4567323" lon="17.8047728">
        <ele>18.8</ele>
        <time>2012-11-16T23:59:31Z</time>
      </trkpt>
      <trkpt lat="59.4569249" lon="17.8047437">
        <ele>24</ele>
        <time>2012-11-16T23:59:45Z</time>
      </trkpt>
      <trkpt lat="59.4570933" lon="17.8045579">
        <ele>28.4</ele>
        <time>2012-11-16T23:59:55Z</time>
      </trkpt>
      <trkpt lat="59.4572164" lon="17.8042906">
        <ele>26.2</ele>
        <time>2012-11-17T00:00:03Z</time>
      </trkpt>
      <trkpt lat="59.4572292" lon="17.804267">
        <ele>26.8</ele>
        <time>2012-11-17T00:00:04Z</time>
      </trkpt>
      <trkpt lat="59.4573433" lon="17.8042609">
        <ele>27.8</ele>
        <time>2012-11-17T00:00:10Z</time>
      </trkpt>
      <trkpt lat="59.4573938" lon="17.8042878">
        <ele>28.8</ele>
        <time>2012-11-17T00:00:12Z</time>
      </trkpt>
      <trkpt lat="59.4575886" lon="17.8043589">
        <ele>32</ele>
        <time>2012-11-17T00:00:22Z</time>
      </trkpt>
      <trkpt lat="59.4577717" lon="17.8043563">
        <ele>33.8</ele>
        <time>2012-11-17T00:00:33Z</time>
      </trkpt>
      <trkpt lat="59.457961" lon="17.8043445">
        <ele>26.8</ele>
        <time>2012-11-17T00:00:45Z</time>
      </trkpt>
      <trkpt lat="59.4581453" lon="17.8042973">
        <ele>25</ele>
        <time>2012-11-17T00:00:56Z</time>
      </trkpt>
      <trkpt lat="59.4583246" lon="17.804304">
        <ele>27</ele>
        <time>2012-11-17T00:01:07Z</time>
      </trkpt>
      <trkpt lat="59.4585054" lon="17.8043666">
        <ele>33.6</ele>
        <time>2012-11-17T00:01:17Z</time>
      </trkpt>
      <trkpt lat="59.4586986" lon="17.8044536">
        <ele>48.4</ele>
        <time>2012-11-17T00:01:25Z</time>
      </trkpt>
    </trkseg>
  </trk>
</gpx>